createdAt,value
2017-08-01T00:01:49.496Z,9.23
2017-08-01T00:04:17.082Z,8.55
2017-08-01T00:06:45.347Z,8.68
2017-08-01T00:09:12.933Z,8.80
2017-08-01T00:11:41.200Z,9.52
2017-08-01T00:14:08.739Z,8.75
2017-08-01T00:16:37.056Z,9.50
2017-08-01T00:19:04.630Z,8.43
2017-08-01T00:21:32.160Z,9.60
2017-08-01T00:23:59.731Z,8.82
2017-08-01T00:26:27.313Z,8.75
2017-08-01T00:28:54.844Z,9.00
2017-08-01T00:31:22.784Z,8.45
2017-08-01T00:33:50.900Z,8.45
2017-08-01T00:36:18.424Z,7.10
2017-08-01T00:38:45.980Z,8.23
2017-08-01T00:41:13.552Z,9.18
2017-08-01T00:43:41.058Z,8.90
2017-08-01T00:46:08.628Z,8.95
2017-08-01T00:48:36.721Z,7.60
2017-08-01T00:51:04.256Z,9.02
2017-08-01T00:53:31.733Z,7.95
2017-08-01T00:56:00.827Z,7.43
2017-08-01T00:58:28.381Z,7.40
2017-08-01T01:00:55.869Z,8.48
2017-08-01T01:03:23.488Z,8.13
2017-08-01T01:05:51.047Z,8.90
2017-08-01T01:08:18.584Z,9.90
2017-08-01T01:10:46.321Z,7.82
2017-08-01T01:13:13.864Z,8.13
2017-08-01T01:15:42.133Z,7.85
2017-08-01T01:18:09.677Z,7.72
2017-08-01T01:20:37.968Z,7.28
2017-08-01T01:23:05.492Z,8.00
2017-08-01T01:25:33.102Z,8.20
2017-08-01T01:28:00.648Z,7.55
2017-08-01T01:30:28.244Z,7.62
2017-08-01T01:32:55.776Z,8.00
2017-08-01T01:35:23.330Z,7.47
2017-08-01T01:37:50.866Z,7.97
2017-08-01T01:40:18.401Z,8.27
2017-08-01T01:42:45.927Z,7.80
2017-08-01T01:45:13.468Z,8.48
2017-08-01T01:47:41.072Z,7.95
2017-08-01T01:50:08.570Z,7.72
2017-08-01T01:52:36.135Z,7.72
2017-08-01T01:55:03.987Z,7.75
2017-08-01T01:57:31.561Z,7.32
2017-08-01T01:59:59.675Z,7.20
2017-08-01T02:02:27.248Z,7.70
2017-08-01T02:04:54.792Z,7.78
2017-08-01T02:07:22.278Z,7.35
2017-08-01T02:09:49.864Z,7.57
2017-08-01T02:12:17.366Z,7.30
2017-08-01T02:14:44.917Z,6.78
2017-08-01T02:17:12.549Z,7.35
2017-08-01T02:19:40.106Z,6.78
2017-08-01T02:22:08.426Z,7.50
2017-08-01T02:24:36.021Z,7.15
2017-08-01T02:27:03.604Z,6.95
2017-08-01T02:29:31.100Z,7.12
2017-08-01T02:31:58.705Z,6.85
2017-08-01T02:34:26.256Z,7.78
2017-08-01T02:36:53.791Z,6.97
2017-08-01T02:39:21.401Z,7.12
2017-08-01T02:41:48.950Z,6.75
2017-08-01T02:44:16.532Z,6.47
2017-08-01T02:46:44.088Z,6.70
2017-08-01T02:49:11.626Z,7.30
2017-08-01T02:51:39.198Z,7.93
2017-08-01T02:54:06.815Z,8.02
2017-08-01T02:56:34.347Z,7.10
2017-08-01T02:59:01.909Z,7.10
2017-08-01T03:01:30.305Z,7.57
2017-08-01T03:03:57.866Z,7.10
2017-08-01T03:06:25.482Z,6.65
2017-08-01T03:08:53.129Z,8.73
2017-08-01T03:11:20.712Z,6.95
2017-08-01T03:13:48.226Z,7.68
2017-08-01T03:16:15.961Z,7.47
2017-08-01T03:18:43.463Z,7.80
2017-08-01T03:21:10.973Z,6.15
2017-08-01T03:23:38.565Z,7.60
2017-08-01T03:26:06.110Z,6.50
2017-08-01T03:28:33.619Z,7.30
2017-08-01T03:31:01.220Z,7.20
2017-08-01T03:33:28.747Z,6.65
2017-08-01T03:35:56.262Z,7.37
2017-08-01T03:38:23.876Z,7.25
2017-08-01T03:40:51.919Z,8.05
2017-08-01T03:43:19.471Z,7.55
2017-08-01T03:45:47.236Z,8.15
2017-08-01T03:48:14.795Z,6.40
2017-08-01T03:50:42.389Z,6.50
2017-08-01T03:53:10.010Z,7.00
2017-08-01T03:55:37.563Z,7.10
2017-08-01T03:58:05.111Z,6.03
2017-08-01T04:00:32.826Z,6.85
2017-08-01T04:03:00.346Z,6.97
2017-08-01T04:05:27.918Z,6.62
2017-08-01T04:07:55.517Z,7.07
2017-08-01T04:10:23.104Z,7.03
2017-08-01T04:12:50.673Z,6.25
2017-08-01T04:15:18.430Z,6.10
2017-08-01T04:17:45.996Z,6.57
2017-08-01T04:20:13.551Z,5.55
2017-08-01T04:22:41.126Z,6.12
2017-08-01T04:25:08.729Z,5.55
2017-08-01T04:27:36.271Z,5.50
2017-08-01T04:30:04.214Z,5.87
2017-08-01T04:32:31.729Z,5.75
2017-08-01T04:34:59.310Z,5.65
2017-08-01T04:37:26.906Z,7.23
2017-08-01T04:39:54.479Z,6.73
2017-08-01T04:42:22.057Z,6.07
2017-08-01T04:45:01.284Z,5.30
2017-08-01T04:47:28.808Z,5.27
2017-08-01T04:49:56.366Z,6.10
2017-08-01T04:52:23.901Z,6.93
2017-08-01T04:54:51.482Z,6.00
2017-08-01T04:57:19.041Z,6.07
2017-08-01T04:59:46.689Z,6.68
2017-08-01T05:02:14.268Z,6.30
2017-08-01T05:04:41.829Z,6.40
2017-08-01T05:07:09.418Z,6.13
2017-08-01T05:09:36.980Z,5.33
2017-08-01T05:12:04.557Z,4.70
2017-08-01T05:14:32.678Z,4.60
2017-08-01T05:17:00.228Z,4.53
2017-08-01T05:19:27.731Z,4.43
2017-08-01T05:21:56.232Z,4.50
2017-08-01T05:24:23.779Z,4.40
2017-08-01T05:26:51.295Z,4.50
2017-08-01T05:29:18.898Z,5.10
2017-08-01T05:31:46.443Z,4.67
2017-08-01T05:34:14.026Z,4.70
2017-08-01T05:36:41.573Z,4.93
2017-08-01T05:39:09.116Z,5.40
2017-08-01T05:41:36.662Z,6.70
2017-08-01T05:44:04.226Z,6.80
2017-08-01T05:46:31.761Z,6.33
2017-08-01T05:48:59.309Z,6.60
2017-08-01T05:51:26.895Z,7.30
2017-08-01T05:53:54.406Z,5.63
2017-08-01T05:56:22.735Z,4.90
2017-08-01T05:58:50.514Z,5.60
2017-08-01T06:01:18.062Z,5.20
2017-08-01T06:03:45.630Z,5.80
2017-08-01T06:06:13.199Z,6.80
2017-08-01T06:08:40.697Z,6.13
2017-08-01T06:11:08.321Z,6.22
2017-08-01T06:13:35.910Z,7.10
2017-08-01T06:16:04.530Z,6.50
2017-08-01T06:18:32.921Z,6.95
2017-08-01T06:21:00.740Z,6.67
2017-08-01T06:23:29.079Z,6.10
2017-08-01T06:25:56.679Z,5.73
2017-08-01T06:28:24.236Z,5.40
2017-08-01T06:30:51.841Z,4.70
2017-08-01T06:33:19.437Z,5.10
2017-08-01T06:35:47.032Z,8.67
2017-08-01T06:38:15.353Z,5.37
2017-08-01T06:40:42.890Z,4.50
2017-08-01T06:43:11.831Z,4.23
2017-08-01T06:45:39.347Z,3.73
2017-08-01T06:48:06.908Z,4.60
2017-08-01T06:50:35.347Z,4.30
2017-08-01T06:53:02.969Z,4.73
2017-08-01T06:55:30.588Z,4.17
2017-08-01T06:57:58.317Z,4.50
2017-08-01T07:00:25.871Z,5.20
2017-08-01T07:02:53.482Z,5.53
2017-08-01T07:05:21.081Z,4.87
2017-08-01T07:07:48.667Z,4.87
2017-08-01T07:10:16.191Z,4.73
2017-08-01T07:12:43.885Z,5.57
2017-08-01T07:15:11.428Z,7.60
2017-08-01T07:17:39.871Z,6.90
2017-08-01T07:20:07.434Z,6.60
2017-08-01T07:22:35.034Z,6.70
2017-08-01T07:25:02.604Z,6.60
2017-08-01T07:27:30.173Z,7.53
2017-08-01T07:29:58.317Z,7.70
2017-08-01T07:32:25.873Z,7.57
2017-08-01T07:34:53.574Z,8.53
2017-08-01T07:37:21.103Z,7.43
2017-08-01T07:39:48.708Z,8.13
2017-08-01T07:42:16.455Z,7.90
2017-08-01T07:44:43.998Z,9.20
2017-08-01T07:47:11.529Z,9.00
2017-08-01T07:49:39.073Z,8.80
2017-08-01T07:52:06.656Z,8.57
2017-08-01T07:54:34.223Z,8.20
2017-08-01T07:57:01.922Z,8.17
2017-08-01T07:59:29.446Z,7.80
2017-08-01T08:01:56.981Z,7.10
2017-08-01T08:04:24.533Z,7.67
2017-08-01T08:06:52.075Z,7.60
2017-08-01T08:09:20.249Z,6.53
2017-08-01T08:11:48.796Z,6.27
2017-08-01T08:14:16.332Z,6.30
2017-08-01T08:16:43.900Z,6.60
2017-08-01T08:19:11.869Z,7.10
2017-08-01T08:21:41.134Z,6.40
2017-08-01T08:24:08.666Z,6.47
2017-08-01T08:26:37.138Z,5.70
2017-08-01T08:29:04.664Z,6.50
2017-08-01T08:31:32.258Z,5.47
2017-08-01T08:33:59.827Z,6.23
2017-08-01T08:36:27.413Z,6.53
2017-08-01T08:38:54.993Z,5.27
2017-08-01T08:41:22.627Z,5.53
2017-08-01T08:43:50.169Z,5.43
2017-08-01T08:46:18.508Z,5.80
2017-08-01T08:48:46.112Z,5.67
2017-08-01T08:51:13.667Z,5.80
2017-08-01T08:53:41.200Z,6.13
2017-08-01T08:56:08.857Z,5.47
2017-08-01T08:58:36.473Z,5.73
2017-08-01T09:01:04.054Z,5.80
2017-08-01T09:03:31.681Z,5.53
2017-08-01T09:05:59.980Z,5.57
2017-08-01T09:08:27.658Z,6.50
2017-08-01T09:10:55.307Z,5.47
2017-08-01T09:13:22.864Z,4.90
2017-08-01T09:15:50.426Z,8.23
2017-08-01T09:18:18.060Z,6.80
2017-08-01T09:20:45.583Z,6.60
2017-08-01T09:23:13.118Z,7.40
2017-08-01T09:25:40.779Z,5.97
2017-08-01T09:28:08.347Z,6.00
2017-08-01T09:30:35.862Z,6.37
2017-08-01T09:33:03.470Z,6.00
2017-08-01T09:35:30.965Z,5.47
2017-08-01T09:37:59.091Z,6.10
2017-08-01T09:40:26.698Z,6.50
2017-08-01T09:42:54.283Z,7.23
2017-08-01T09:45:21.838Z,6.30
2017-08-01T09:47:50.245Z,7.33
2017-08-01T09:50:17.824Z,7.43
2017-08-01T09:52:45.413Z,7.27
2017-08-01T09:55:13.148Z,7.20
2017-08-01T09:57:40.762Z,8.33
2017-08-01T10:00:08.316Z,7.03
2017-08-01T10:02:35.925Z,6.90
2017-08-01T10:05:03.495Z,8.00
2017-08-01T10:07:31.062Z,6.97
2017-08-01T10:09:59.119Z,7.80
2017-08-01T10:12:27.295Z,7.20
2017-08-01T10:14:56.182Z,7.27
2017-08-01T10:17:23.865Z,6.97
2017-08-01T10:19:51.490Z,7.73
2017-08-01T10:22:19.005Z,5.13
2017-08-01T10:24:46.834Z,6.43
2017-08-01T10:27:14.405Z,6.93
2017-08-01T10:29:41.957Z,5.07
2017-08-01T10:32:09.541Z,5.47
2017-08-01T10:34:37.136Z,5.77
2017-08-01T10:37:04.684Z,6.20
2017-08-01T10:39:32.245Z,5.03
2017-08-01T10:41:59.904Z,5.20
2017-08-01T10:44:27.597Z,6.00
2017-08-01T10:46:55.261Z,6.77
2017-08-01T10:49:22.927Z,6.00
2017-08-01T10:51:50.575Z,5.63
2017-08-01T10:54:18.354Z,6.10
2017-08-01T10:56:45.905Z,5.60
2017-08-01T10:59:13.454Z,4.67
2017-08-01T11:01:41.208Z,5.00
2017-08-01T11:04:08.822Z,4.50
2017-08-01T11:06:36.376Z,4.33
2017-08-01T11:09:04.343Z,3.80
2017-08-01T11:11:31.827Z,4.47
2017-08-01T11:13:59.462Z,3.77
2017-08-01T11:16:27.197Z,3.90
2017-08-01T11:18:54.765Z,3.90
2017-08-01T11:21:22.307Z,3.20
2017-08-01T11:23:49.947Z,3.87
2017-08-01T11:26:18.321Z,4.33
2017-08-01T11:28:45.917Z,3.67
2017-08-01T11:31:13.647Z,4.37
2017-08-01T11:33:41.215Z,3.80
2017-08-01T11:36:08.789Z,4.90
2017-08-01T11:38:37.113Z,3.43
2017-08-01T11:41:05.541Z,4.10
2017-08-01T11:43:33.901Z,3.93
2017-08-01T11:46:01.574Z,4.80
2017-08-01T11:48:29.465Z,6.00
2017-08-01T11:50:56.992Z,4.50
2017-08-01T11:53:24.598Z,5.07
2017-08-01T11:55:52.241Z,5.40
2017-08-01T11:58:19.825Z,4.90
2017-08-01T12:00:47.441Z,5.77
2017-08-01T12:03:15.034Z,5.60
2017-08-01T12:05:43.109Z,6.17
2017-08-01T12:08:10.715Z,6.40
2017-08-01T12:10:38.335Z,5.67
2017-08-01T12:13:07.045Z,5.87
2017-08-01T12:15:34.634Z,6.27
2017-08-01T12:18:02.243Z,6.43
2017-08-01T12:20:30.129Z,6.00
2017-08-01T12:22:57.767Z,6.30
2017-08-01T12:25:25.347Z,6.03
2017-08-01T12:27:52.961Z,6.37
2017-08-01T12:30:20.484Z,5.87
2017-08-01T12:32:48.047Z,5.90
2017-08-01T12:35:15.643Z,5.87
2017-08-01T12:37:43.309Z,5.50
2017-08-01T12:40:10.885Z,5.87
2017-08-01T12:42:38.456Z,5.10
2017-08-01T12:45:06.183Z,5.73
2017-08-01T12:47:34.957Z,5.57
2017-08-01T12:50:02.607Z,5.30
2017-08-01T12:52:30.162Z,5.10
2017-08-01T12:54:58.101Z,5.30
2017-08-01T12:57:25.629Z,5.40
2017-08-01T12:59:54.033Z,5.50
2017-08-01T13:02:21.720Z,4.83
2017-08-01T13:04:49.451Z,5.43
2017-08-01T13:07:17.065Z,4.67
2017-08-01T13:09:44.632Z,5.30
2017-08-01T13:12:12.191Z,5.50
2017-08-01T13:14:39.807Z,5.27
2017-08-01T13:17:07.341Z,5.80
2017-08-01T13:19:34.934Z,5.03
2017-08-01T13:22:02.586Z,5.20
2017-08-01T13:24:32.221Z,4.90
2017-08-01T13:27:00.414Z,5.43
2017-08-01T13:29:29.040Z,4.73
2017-08-01T13:31:56.541Z,5.07
2017-08-01T13:34:24.116Z,5.07
2017-08-01T13:36:51.766Z,5.20
2017-08-01T13:39:19.322Z,4.83
2017-08-01T13:41:46.932Z,5.33
2017-08-01T13:44:15.360Z,4.93
2017-08-01T13:46:42.958Z,5.03
2017-08-01T13:49:10.543Z,4.80
2017-08-01T13:51:41.013Z,5.63
2017-08-01T13:54:08.540Z,4.93
2017-08-01T13:56:36.114Z,5.30
2017-08-01T13:59:03.754Z,4.80
2017-08-01T14:01:31.314Z,5.40
2017-08-01T14:03:58.843Z,5.43
2017-08-01T14:06:26.384Z,5.20
2017-08-01T14:08:53.957Z,4.70
2017-08-01T14:11:21.541Z,5.10
2017-08-01T14:13:49.112Z,5.03
2017-08-01T14:16:16.673Z,5.10
2017-08-01T14:18:44.233Z,5.17
2017-08-01T14:21:11.832Z,4.73
2017-08-01T14:23:39.347Z,4.77
2017-08-01T14:26:06.910Z,5.07
2017-08-01T14:28:34.681Z,5.57
2017-08-01T14:31:02.181Z,4.10
2017-08-01T14:33:29.711Z,4.47
2017-08-01T14:35:57.377Z,4.67
2017-08-01T14:38:24.940Z,5.67
2017-08-01T14:40:52.442Z,4.93
2017-08-01T14:43:20.080Z,4.73
2017-08-01T14:45:47.698Z,4.40
2017-08-01T14:48:15.432Z,5.00
2017-08-01T14:50:43.199Z,4.90
2017-08-01T14:53:10.801Z,5.23
2017-08-01T14:55:38.333Z,5.00
2017-08-01T14:58:06.858Z,4.50
2017-08-01T15:00:35.179Z,5.07
2017-08-01T15:03:02.737Z,4.37
2017-08-01T15:05:30.334Z,4.33
2017-08-01T15:07:57.906Z,4.83
2017-08-01T15:10:25.485Z,4.23
2017-08-01T15:12:53.061Z,4.80
2017-08-01T15:15:20.598Z,4.30
2017-08-01T15:17:48.180Z,4.63
2017-08-01T15:20:15.779Z,4.90
2017-08-01T15:22:43.325Z,4.57
2017-08-01T15:25:10.910Z,5.17
2017-08-01T15:27:38.457Z,4.40
2017-08-01T15:30:06.007Z,6.10
2017-08-01T15:32:33.549Z,4.60
2017-08-01T15:35:01.307Z,4.97
2017-08-01T15:37:28.847Z,4.93
2017-08-01T15:39:56.420Z,4.77
2017-08-01T15:42:24.175Z,4.90
2017-08-01T15:44:51.734Z,4.73
2017-08-01T15:47:19.284Z,5.50
2017-08-01T15:49:46.919Z,5.53
2017-08-01T15:52:14.462Z,4.30
2017-08-01T15:54:42.781Z,4.83
2017-08-01T15:57:10.522Z,5.10
2017-08-01T15:59:38.063Z,4.97
2017-08-01T16:02:06.443Z,5.30
2017-08-01T16:04:34.905Z,5.00
2017-08-01T16:07:02.475Z,5.20
2017-08-01T16:09:30.051Z,5.00
2017-08-01T16:11:58.595Z,4.27
2017-08-01T16:14:26.173Z,4.80
2017-08-01T16:16:53.712Z,5.40
2017-08-01T16:19:21.243Z,5.20
2017-08-01T16:21:48.804Z,5.20
2017-08-01T16:24:16.376Z,4.40
2017-08-01T16:26:44.772Z,5.10
2017-08-01T16:29:12.313Z,5.20
2017-08-01T16:31:39.889Z,4.60
2017-08-01T16:34:27.345Z,5.00
2017-08-01T16:36:54.937Z,5.03
2017-08-01T16:39:22.584Z,5.50
2017-08-01T16:44:42.302Z,5.30
2017-08-01T16:47:09.915Z,5.27
2017-08-01T16:49:37.866Z,5.13
2017-08-01T16:52:05.427Z,5.17
2017-08-01T16:54:33.048Z,6.00
2017-08-01T16:57:00.599Z,5.50
2017-08-01T16:59:28.206Z,6.50
2017-08-01T17:01:55.863Z,6.33
2017-08-01T17:04:27.826Z,6.57
2017-08-01T17:06:55.477Z,6.50
2017-08-01T17:09:28.946Z,6.03
2017-08-01T17:11:57.872Z,7.07
2017-08-01T17:17:14.034Z,6.60
2017-08-01T17:19:41.648Z,7.17
2017-08-01T17:22:10.072Z,7.37
2017-08-01T17:24:37.616Z,8.40
2017-08-01T17:29:58.406Z,9.10
2017-08-01T17:35:19.470Z,9.40
2017-08-01T17:37:47.156Z,9.20
2017-08-01T17:40:28.229Z,9.70
2017-08-01T17:45:39.494Z,9.53
2017-08-01T17:48:27.333Z,9.60
2017-08-01T17:50:54.961Z,10.03
2017-08-01T17:53:29.825Z,9.60
2017-08-01T17:55:57.430Z,9.70
2017-08-01T17:58:25.007Z,10.00
2017-08-01T18:00:52.769Z,9.70
2017-08-01T18:03:20.410Z,9.90
2017-08-01T18:05:48.004Z,10.10
2017-08-01T18:08:19.758Z,11.57
2017-08-01T18:10:47.945Z,9.63
2017-08-01T18:13:15.537Z,9.63
2017-08-01T18:15:43.314Z,9.80
2017-08-01T18:18:10.930Z,8.87
2017-08-01T18:20:50.674Z,9.90
2017-08-01T18:23:18.423Z,9.80
2017-08-01T18:25:46.070Z,10.17
2017-08-01T18:28:13.737Z,10.40
2017-08-01T18:30:42.137Z,10.40
2017-08-01T18:33:09.744Z,10.90
2017-08-01T18:35:37.348Z,10.30
2017-08-01T18:38:04.893Z,9.50
2017-08-01T18:40:32.509Z,10.10
2017-08-01T18:43:00.067Z,9.50
2017-08-01T18:45:27.628Z,9.90
2017-08-01T18:47:55.949Z,10.33
2017-08-01T18:50:23.540Z,10.60
2017-08-01T18:52:51.195Z,9.67
2017-08-01T18:55:18.957Z,10.10
2017-08-01T18:57:48.160Z,11.17
2017-08-01T19:00:15.930Z,10.73
2017-08-01T19:02:43.515Z,14.90
2017-08-01T19:05:12.389Z,12.23
2017-08-01T19:07:41.212Z,17.43
2017-08-01T19:10:08.900Z,12.67
2017-08-01T19:12:36.733Z,10.80
2017-08-01T19:15:04.381Z,9.43
2017-08-01T19:17:32.091Z,9.57
2017-08-01T19:19:59.894Z,8.93
2017-08-01T19:22:27.521Z,8.80
2017-08-01T19:24:55.143Z,8.60
2017-08-01T19:27:22.815Z,8.63
2017-08-01T19:29:51.185Z,7.70
2017-08-01T19:32:19.557Z,9.20
2017-08-01T19:34:48.167Z,8.33
2017-08-01T19:37:19.407Z,7.37
2017-08-01T19:39:49.050Z,7.63
2017-08-01T19:42:16.660Z,7.40
2017-08-01T19:44:45.105Z,7.17
2017-08-01T19:47:13.034Z,7.33
2017-08-01T19:49:41.213Z,7.67
2017-08-01T19:52:08.953Z,6.50
2017-08-01T19:54:36.805Z,7.50
2017-08-01T19:57:04.528Z,7.77
2017-08-01T19:59:32.075Z,8.40
2017-08-01T20:01:59.666Z,8.53
2017-08-01T20:04:27.223Z,8.70
2017-08-01T20:06:54.773Z,9.17
2017-08-01T20:09:22.567Z,10.20
2017-08-01T20:11:50.157Z,10.35
2017-08-01T20:14:18.006Z,10.77
2017-08-01T20:16:45.813Z,10.30
2017-08-01T20:19:13.430Z,10.20
2017-08-01T20:21:42.946Z,11.00
2017-08-01T20:24:10.603Z,10.23
2017-08-01T20:26:38.918Z,11.95
2017-08-01T20:29:06.565Z,11.10
2017-08-01T20:31:34.254Z,9.80
2017-08-01T20:34:01.796Z,10.07
2017-08-01T20:36:29.470Z,8.25
2017-08-01T20:39:01.090Z,8.52
2017-08-01T20:41:28.691Z,8.30
2017-08-01T20:43:56.291Z,7.70
2017-08-01T20:46:23.947Z,7.70
2017-08-01T20:48:51.573Z,7.75
2017-08-01T20:51:19.220Z,7.53
2017-08-01T20:53:47.622Z,8.35
2017-08-01T20:56:15.249Z,7.68
2017-08-01T20:58:42.834Z,9.05
2017-08-01T21:01:10.968Z,8.93
2017-08-01T21:03:38.515Z,7.95
2017-08-01T21:06:06.213Z,8.13
2017-08-01T21:08:33.859Z,8.10
2017-08-01T21:11:01.449Z,8.15
2017-08-01T21:13:29.017Z,7.65
2017-08-01T21:15:56.666Z,8.35
2017-08-01T21:18:24.213Z,8.07
2017-08-01T21:20:51.788Z,7.47
2017-08-01T21:23:19.342Z,7.93
2017-08-01T21:25:46.939Z,7.75
2017-08-01T21:28:14.498Z,8.10
2017-08-01T21:30:42.095Z,8.25
2017-08-01T21:33:10.435Z,8.70
2017-08-01T21:35:38.030Z,8.68
2017-08-01T21:38:05.757Z,8.45
2017-08-01T21:40:40.238Z,8.77
2017-08-01T21:43:07.807Z,9.50
2017-08-01T21:45:35.377Z,9.65
2017-08-01T21:48:02.917Z,10.07
2017-08-01T21:50:30.692Z,12.05
2017-08-01T21:52:58.438Z,11.27
2017-08-01T21:55:25.963Z,11.68
2017-08-01T21:57:53.604Z,12.10
2017-08-01T22:00:23.231Z,12.73
2017-08-01T22:02:50.777Z,15.50
2017-08-01T22:05:19.174Z,13.00
2017-08-01T22:07:46.786Z,10.00
2017-08-01T22:15:55.244Z,11.38
2017-08-01T22:18:22.847Z,9.75
2017-08-01T22:29:22.548Z,8.70
2017-08-01T22:31:50.117Z,12.23
2017-08-01T22:34:17.688Z,13.68
2017-08-01T22:36:45.321Z,14.40
2017-08-01T22:39:12.836Z,9.70
2017-08-01T22:41:40.428Z,10.90
2017-08-01T22:44:07.996Z,9.80
2017-08-01T22:46:36.360Z,11.70
2017-08-01T22:49:03.982Z,10.60
2017-08-01T22:51:31.631Z,8.80
2017-08-01T22:54:07.207Z,9.90
2017-08-01T22:56:34.965Z,9.40
2017-08-01T22:59:02.531Z,9.30
2017-08-01T23:01:30.075Z,7.22
2017-08-01T23:03:57.801Z,9.10
2017-08-01T23:06:26.082Z,7.82
2017-08-01T23:08:53.693Z,9.15
2017-08-01T23:11:21.272Z,10.80
2017-08-01T23:13:48.889Z,10.18
2017-08-01T23:16:16.424Z,9.45
2017-08-01T23:18:44.052Z,8.23
2017-08-01T23:21:11.559Z,8.43
2017-08-01T23:23:39.109Z,9.00
2017-08-01T23:26:06.714Z,10.18
2017-08-01T23:28:34.258Z,13.60
2017-08-01T23:31:01.801Z,12.95
2017-08-01T23:33:29.362Z,14.45
2017-08-01T23:35:57.212Z,13.93
2017-08-01T23:38:24.782Z,10.93
2017-08-01T23:40:52.386Z,9.02
2017-08-01T23:43:19.926Z,8.75
2017-08-01T23:45:47.420Z,11.88
2017-08-01T23:48:15.005Z,9.07
2017-08-01T23:50:42.546Z,10.15
2017-08-01T23:53:10.060Z,10.18
2017-08-01T23:55:37.832Z,13.05
2017-08-01T23:58:05.358Z,15.75
